Arlington, Oregon
Current Conditions -  °F | °C
As of 7:53 PM on Tuesday 25 Nov 2014 (Local Time) from KHRI Reporting Station
Overcast Overcast  
Wind Chill: 40°   Ceiling: 4200
Heat Index: 45°   Visibility: 10mi
Dew Point: 41°   Wind: 9mph
Humidity: 86%   Direction: 80°E
Pressure: 30.19"   Gusts: NA
Location:  45.72°N, 120.2°W
Report Text: KHRI 260353Z AUTO 08008KT 10SM BKN042 OVC055 07/05 A3019 RMK AO2 SLP225 T00720050
Loading
Personal Weather Stations






























Interactive Weather Map New forecast layout! Learn more

10-Day Weather Forecast

Advertisements
Track Severe Weather on mobile